Time;durP1;ratioP1;P1;durP2;ratioP2;P2;SDS_P1;SDS_P2;PMS_P1;PMS_P2;Temp;Humidity;BMP_temperature;BMP_pressure;BME280_temperature;BME280_humidity;BME280_pressure;Samples;Min_cycle;Max_cycle;Signal;HPM_P1;HPM_P2
2021/11/10 21:58:05;;;;;;;42.28;19.63;;;;;;;;;;4984354;23;21031;31
2021/11/10 22:00:34;;;;;;;42.85;20.88;;;;;;;;;;4919984;29;20048;-94
2021/11/10 22:03:14;;;;;;;45.17;20.75;;;;;;;;;;4921453;29;20052;-95
2021/11/10 22:05:42;;;;;;;38.90;19.70;;;;;;;;;;4921510;29;20045;-94
2021/11/10 22:08:12;;;;;;;41.50;19.80;;;;;;;;;;4921561;29;20037;-94
2021/11/10 22:11:21;;;;;;;43.95;21.50;;;;;;;;;;4921720;29;20063;-95
2021/11/10 22:13:49;;;;;;;38.15;20.58;;;;;;;;;;4921358;29;20048;-94
2021/11/10 22:16:16;;;;;;;42.15;20.98;;;;;;;;;;4922452;29;20048;-94
2021/11/10 22:18:46;;;;;;;44.92;21.33;;;;;;;;;;4925013;29;20036;-93
2021/11/10 22:21:18;;;;;;;39.00;20.75;;;;;;;;;;4924918;29;20056;-95
2021/11/10 22:23:45;;;;;;;47.63;23.15;;;;;;;;;;4909315;29;20043;-96
2021/11/10 22:26:12;;;;;;;46.85;22.85;;;;;;;;;;4924845;29;20061;-95
2021/11/10 22:28:42;;;;;;;51.45;23.15;;;;;;;;;;4924760;29;20043;-96
2021/11/10 22:31:14;;;;;;;63.45;26.27;;;;;;;;;;4924704;29;20044;-96
2021/11/10 22:33:56;;;;;;;49.38;25.00;;;;;;;;;;4925767;29;20064;-95
2021/11/10 22:36:24;;;;;;;54.83;25.63;;;;;;;;;;4924721;29;20119;-95
2021/11/10 22:39:07;;;;;;;49.15;25.17;;;;;;;;;;4922771;29;20028;-95
2021/11/10 22:41:42;;;;;;;47.90;23.33;;;;;;;;;;4924669;29;20040;-95
2021/11/10 22:44:16;;;;;;;48.13;24.00;;;;;;;;;;4924701;29;20096;-93
2021/11/10 22:46:57;;;;;;;53.63;23.58;;;;;;;;;;4924417;29;20060;-95
2021/11/10 22:49:26;;;;;;;51.08;25.52;;;;;;;;;;4924547;29;20127;-95
2021/11/10 22:51:54;;;;;;;62.60;27.73;;;;;;;;;;4924479;29;20104;-95
2021/11/10 22:54:23;;;;;;;55.72;26.92;;;;;;;;;;4924599;29;20059;-95
2021/11/10 22:56:51;;;;;;;55.40;26.27;;;;;;;;;;4924383;29;20053;-95
2021/11/10 22:59:25;;;;;;;55.92;26.02;;;;;;;;;;4924329;29;20040;-95
2021/11/10 23:02:01;;;;;;;58.17;26.20;;;;;;;;;;4924464;29;20044;-94
2021/11/10 23:04:42;;;;;;;41.22;22.92;;;;;;;;;;4923551;29;20037;-95
2021/11/10 23:07:11;;;;;;;47.33;23.25;;;;;;;;;;4924175;29;20052;-95
2021/11/10 23:09:40;;;;;;;51.80;22.73;;;;;;;;;;4924146;29;20132;-96
2021/11/10 23:12:11;;;;;;;45.05;21.23;;;;;;;;;;4924047;29;20072;-95
2021/11/10 23:14:51;;;;;;;47.10;22.10;;;;;;;;;;4924043;29;20032;-95
2021/11/10 23:17:38;;;;;;;42.25;21.48;;;;;;;;;;4924151;29;20056;-96
2021/11/10 23:20:10;;;;;;;46.60;20.63;;;;;;;;;;4924079;29;20108;-96
2021/11/10 23:22:38;;;;;;;44.10;21.13;;;;;;;;;;4923897;29;20480;-96
2021/11/10 23:25:06;;;;;;;36.20;20.83;;;;;;;;;;4923976;29;20052;-95
2021/11/10 23:27:49;;;;;;;40.97;22.02;;;;;;;;;;4921113;29;20064;-95
2021/11/10 23:30:36;;;;;;;52.58;21.30;;;;;;;;;;4923111;29;20036;-95
2021/11/10 23:33:17;;;;;;;46.67;22.30;;;;;;;;;;4923415;29;20083;-96
2021/11/10 23:35:50;;;;;;;51.05;22.15;;;;;;;;;;4923443;29;20071;-95
2021/11/10 23:38:18;;;;;;;39.22;21.38;;;;;;;;;;4923756;29;20037;-96
2021/11/10 23:40:50;;;;;;;41.58;20.98;;;;;;;;;;4923601;29;20040;-96
2021/11/10 23:43:18;;;;;;;47.60;22.77;;;;;;;;;;4923561;29;20037;-96
2021/11/10 23:45:48;;;;;;;48.75;23.10;;;;;;;;;;4923901;29;20050;-96
2021/11/10 23:48:29;;;;;;;45.75;21.90;;;;;;;;;;4922671;29;20047;-96
2021/11/10 23:50:57;;;;;;;41.78;22.73;;;;;;;;;;4923236;29;20070;-96
2021/11/10 23:53:38;;;;;;;41.60;22.20;;;;;;;;;;4922490;29;20039;-96
2021/11/10 23:56:07;;;;;;;41.83;22.40;;;;;;;;;;4923275;29;20040;-95
2021/11/10 23:58:38;;;;;;;36.50;21.50;;;;;;;;;;4923132;29;20099;-96
